Biotrans — JWPN — position and weather

sailwx.info

Track history (hours):
 
Tides and Currents Weather Stations Pressure Air Temp Water Temp Dewpoint Dewpoint Depression Visibility Wind Speed Wind Dir Waves Ship Positions

Biotrans

Last reported at 2015-Jan-22 22:07 UTC. Time now 2015-Jan-28 12:11 UTC.
Position N 62°51' E 006°41'.

Length 55 m; draft 5.5 m.

Type: Cargo ship. MMSI: 259260000.

Date/timePositionNaut miles runAvg speedWind from/ knotsBaromVisibWave heightAir tempDewpointWater temp
2015-Jan-22 22:07N 62°51' E 006°41'59 6.9
2015-Jan-22 13:31N 63°33' E 008°14'109 2.6
2015-Jan-20 19:33N 64°50' E 011°11'7 7.1
2015-Jan-20 18:33N 64°55' E 011°23'7 6.9
2015-Jan-20 17:33N 64°59' E 011°36'68 8.1
2015-Jan-20 09:13N 66°02' E 012°35'6 7.9
2015-Jan-20 08:31N 66°07' E 012°44'16 7.8
2015-Jan-20 06:26N 66°22' E 012°57'9 8.0
2015-Jan-20 05:21N 66°30' E 012°58'34 7.1
2015-Jan-20 00:29N 67°00' E 013°41'8 7.9
2015-Jan-19 23:32N 67°05' E 013°56'7 7.3
2015-Jan-19 22:33N 67°11' E 014°04'7 7.5
2015-Jan-19 21:33N 67°18' E 014°15'8 7.5
2015-Jan-19 20:33N 67°24' E 014°26'7 7.4
2015-Jan-19 19:33N 67°31' E 014°30'11 7.3
2015-Jan-19 18:04N 67°42' E 014°31'146 4.6
2015-Jan-18 10:18N 69°35' E 018°48'6 7.9
2015-Jan-18 09:33N 69°39' E 018°59'94 2.8
2015-Jan-16 23:22N 70°29' E 022°54'4 5.1
2015-Jan-16 22:33N 70°33' E 022°57'2 1.5
2015-Jan-16 21:33N 70°33' E 023°01'8 8.5
2015-Jan-16 20:33N 70°39' E 023°21'8 7.7
2015-Jan-16 19:33N 70°33' E 023°38'37 0.9
2015-Jan-15 00:21N 70°23' E 021°51'70 5.0
2015-Jan-14 10:14N 69°42' E 019°04'0 0.0
2015-Jan-14 09:33N 69°42' E 019°04'3 3.2
2015-Jan-14 08:33N 69°40' E 018°58'0 0.0
2015-Jan-14 07:33N 69°40' E 018°58'0 0.0
2015-Jan-14 06:33N 69°40' E 018°58'0 0.0
2015-Jan-14 05:33N 69°40' E 018°58'0 0.5
2015-Jan-14 04:33N 69°39' E 018°59'  
Track history (hours):
 
Tides and Currents Weather Stations Pressure Air Temp Water Temp Dewpoint Dewpoint Depression Visibility Wind Speed Wind Dir Waves Ship Positions

Biotrans

Last reported at 2015-Jan-22 22:07 UTC. Time now 2015-Jan-28 12:11 UTC.
Position N 62°51' E 006°41'.

Length 55 m; draft 5.5 m.

Type: Cargo ship. MMSI: 259260000.

Date/timePositionNaut miles runAvg speedWind from/ knotsBaromVisibWave heightAir tempDewpointWater temp
2015-Jan-22 22:07N 62°51' E 006°41'59 6.9
2015-Jan-22 13:31N 63°33' E 008°14'109 2.6
2015-Jan-20 19:33N 64°50' E 011°11'7 7.1
2015-Jan-20 18:33N 64°55' E 011°23'7 6.9
2015-Jan-20 17:33N 64°59' E 011°36'68 8.1
2015-Jan-20 09:13N 66°02' E 012°35'6 7.9
2015-Jan-20 08:31N 66°07' E 012°44'16 7.8
2015-Jan-20 06:26N 66°22' E 012°57'9 8.0
2015-Jan-20 05:21N 66°30' E 012°58'34 7.1
2015-Jan-20 00:29N 67°00' E 013°41'8 7.9
2015-Jan-19 23:32N 67°05' E 013°56'7 7.3
2015-Jan-19 22:33N 67°11' E 014°04'7 7.5
2015-Jan-19 21:33N 67°18' E 014°15'8 7.5
2015-Jan-19 20:33N 67°24' E 014°26'7 7.4
2015-Jan-19 19:33N 67°31' E 014°30'11 7.3
2015-Jan-19 18:04N 67°42' E 014°31'146 4.6
2015-Jan-18 10:18N 69°35' E 018°48'6 7.9
2015-Jan-18 09:33N 69°39' E 018°59'94 2.8
2015-Jan-16 23:22N 70°29' E 022°54'4 5.1
2015-Jan-16 22:33N 70°33' E 022°57'2 1.5
2015-Jan-16 21:33N 70°33' E 023°01'8 8.5
2015-Jan-16 20:33N 70°39' E 023°21'8 7.7
2015-Jan-16 19:33N 70°33' E 023°38'37 0.9
2015-Jan-15 00:21N 70°23' E 021°51'70 5.0
2015-Jan-14 10:14N 69°42' E 019°04'0 0.0
2015-Jan-14 09:33N 69°42' E 019°04'3 3.2
2015-Jan-14 08:33N 69°40' E 018°58'0 0.0
2015-Jan-14 07:33N 69°40' E 018°58'0 0.0
2015-Jan-14 06:33N 69°40' E 018°58'0 0.0
2015-Jan-14 05:33N 69°40' E 018°58'0 0.5
2015-Jan-14 04:33N 69°39' E 018°59'  

Dump ship's entire track history